sensor_id;sensor_type;location;lat;lon;timestamp;P1;durP1;ratioP1;P2;durP2;ratioP2
10056;SDS011;5068;51.286;7.518;2024-02-14T00:00:11;4.28;;;1.80;;
10056;SDS011;5068;51.286;7.518;2024-02-14T00:01:49;2.78;;;1.60;;
10056;SDS011;5068;51.286;7.518;2024-02-14T00:03:22;2.72;;;1.35;;
10056;SDS011;5068;51.286;7.518;2024-02-14T00:04:56;4.65;;;2.08;;
10056;SDS011;5068;51.286;7.518;2024-02-14T00:06:28;2.70;;;1.77;;
10056;SDS011;5068;51.286;7.518;2024-02-14T00:08:02;4.43;;;1.50;;
10056;SDS011;5068;51.286;7.518;2024-02-14T00:09:36;4.03;;;1.60;;
10056;SDS011;5068;51.286;7.518;2024-02-14T00:11:09;3.42;;;1.58;;
10056;SDS011;5068;51.286;7.518;2024-02-14T00:12:41;2.78;;;1.50;;
10056;SDS011;5068;51.286;7.518;2024-02-14T00:14:17;2.90;;;1.55;;
10056;SDS011;5068;51.286;7.518;2024-02-14T00:15:50;2.58;;;1.30;;
10056;SDS011;5068;51.286;7.518;2024-02-14T00:17:24;3.42;;;1.92;;
10056;SDS011;5068;51.286;7.518;2024-02-14T00:18:56;2.95;;;1.60;;
10056;SDS011;5068;51.286;7.518;2024-02-14T00:20:30;2.22;;;1.27;;
10056;SDS011;5068;51.286;7.518;2024-02-14T00:22:04;4.03;;;1.42;;
10056;SDS011;5068;51.286;7.518;2024-02-14T00:23:38;4.25;;;1.60;;
10056;SDS011;5068;51.286;7.518;2024-02-14T00:25:11;2.55;;;1.50;;
10056;SDS011;5068;51.286;7.518;2024-02-14T00:26:52;2.67;;;1.67;;
10056;SDS011;5068;51.286;7.518;2024-02-14T00:28:25;4.07;;;1.40;;
10056;SDS011;5068;51.286;7.518;2024-02-14T00:29:59;3.30;;;1.40;;
10056;SDS011;5068;51.286;7.518;2024-02-14T00:31:42;2.58;;;1.35;;
10056;SDS011;5068;51.286;7.518;2024-02-14T00:33:19;2.72;;;1.33;;
10056;SDS011;5068;51.286;7.518;2024-02-14T00:34:53;2.80;;;1.40;;
10056;SDS011;5068;51.286;7.518;2024-02-14T00:36:27;5.53;;;1.60;;
10056;SDS011;5068;51.286;7.518;2024-02-14T00:37:59;2.85;;;1.50;;
10056;SDS011;5068;51.286;7.518;2024-02-14T00:39:32;3.97;;;1.75;;
10056;SDS011;5068;51.286;7.518;2024-02-14T00:41:04;2.83;;;1.40;;
10056;SDS011;5068;51.286;7.518;2024-02-14T00:42:44;3.60;;;1.30;;
10056;SDS011;5068;51.286;7.518;2024-02-14T00:44:16;3.42;;;1.27;;
10056;SDS011;5068;51.286;7.518;2024-02-14T00:45:51;2.60;;;1.33;;
10056;SDS011;5068;51.286;7.518;2024-02-14T00:47:23;2.70;;;1.67;;
10056;SDS011;5068;51.286;7.518;2024-02-14T00:48:57;3.63;;;1.73;;
10056;SDS011;5068;51.286;7.518;2024-02-14T00:50:29;3.25;;;1.60;;
10056;SDS011;5068;51.286;7.518;2024-02-14T00:52:03;2.78;;;1.42;;
10056;SDS011;5068;51.286;7.518;2024-02-14T00:53:35;2.35;;;1.00;;
10056;SDS011;5068;51.286;7.518;2024-02-14T00:55:08;3.55;;;1.20;;
10056;SDS011;5068;51.286;7.518;2024-02-14T00:56:41;2.42;;;1.40;;
10056;SDS011;5068;51.286;7.518;2024-02-14T00:58:14;4.10;;;1.27;;
10056;SDS011;5068;51.286;7.518;2024-02-14T00:59:47;3.92;;;1.50;;
10056;SDS011;5068;51.286;7.518;2024-02-14T01:01:20;3.67;;;1.50;;
10056;SDS011;5068;51.286;7.518;2024-02-14T01:02:54;2.50;;;1.40;;
10056;SDS011;5068;51.286;7.518;2024-02-14T01:04:27;6.10;;;1.50;;
10056;SDS011;5068;51.286;7.518;2024-02-14T01:06:01;2.17;;;1.40;;
10056;SDS011;5068;51.286;7.518;2024-02-14T01:07:33;4.50;;;1.30;;
10056;SDS011;5068;51.286;7.518;2024-02-14T01:09:06;2.83;;;1.17;;
10056;SDS011;5068;51.286;7.518;2024-02-14T01:10:40;3.97;;;1.52;;
10056;SDS011;5068;51.286;7.518;2024-02-14T01:12:13;3.33;;;1.10;;
10056;SDS011;5068;51.286;7.518;2024-02-14T01:13:46;2.88;;;1.23;;
10056;SDS011;5068;51.286;7.518;2024-02-14T01:15:19;2.03;;;1.10;;
10056;SDS011;5068;51.286;7.518;2024-02-14T01:16:54;2.53;;;1.10;;
10056;SDS011;5068;51.286;7.518;2024-02-14T01:18:28;2.58;;;1.15;;
10056;SDS011;5068;51.286;7.518;2024-02-14T01:20:01;2.17;;;1.00;;
10056;SDS011;5068;51.286;7.518;2024-02-14T01:21:35;3.45;;;1.13;;
10056;SDS011;5068;51.286;7.518;2024-02-14T01:23:07;2.88;;;1.17;;
10056;SDS011;5068;51.286;7.518;2024-02-14T01:24:52;3.50;;;1.38;;
10056;SDS011;5068;51.286;7.518;2024-02-14T01:26:25;2.33;;;1.30;;
10056;SDS011;5068;51.286;7.518;2024-02-14T01:27:57;2.95;;;1.20;;
10056;SDS011;5068;51.286;7.518;2024-02-14T01:29:31;4.07;;;1.17;;
10056;SDS011;5068;51.286;7.518;2024-02-14T01:31:05;2.63;;;1.15;;
10056;SDS011;5068;51.286;7.518;2024-02-14T01:32:38;1.95;;;0.98;;
10056;SDS011;5068;51.286;7.518;2024-02-14T01:34:12;2.55;;;1.30;;
10056;SDS011;5068;51.286;7.518;2024-02-14T01:35:44;3.03;;;1.42;;
10056;SDS011;5068;51.286;7.518;2024-02-14T01:37:17;2.67;;;1.33;;
10056;SDS011;5068;51.286;7.518;2024-02-14T01:38:52;2.25;;;1.20;;
10056;SDS011;5068;51.286;7.518;2024-02-14T01:40:25;2.40;;;1.25;;
10056;SDS011;5068;51.286;7.518;2024-02-14T01:42:06;3.20;;;1.10;;
10056;SDS011;5068;51.286;7.518;2024-02-14T01:43:39;2.17;;;1.05;;
10056;SDS011;5068;51.286;7.518;2024-02-14T01:45:12;2.67;;;1.23;;
10056;SDS011;5068;51.286;7.518;2024-02-14T01:46:54;2.47;;;0.95;;
10056;SDS011;5068;51.286;7.518;2024-02-14T01:48:28;2.97;;;1.10;;
10056;SDS011;5068;51.286;7.518;2024-02-14T01:50:02;2.33;;;1.13;;
10056;SDS011;5068;51.286;7.518;2024-02-14T01:51:36;1.95;;;0.98;;
10056;SDS011;5068;51.286;7.518;2024-02-14T01:53:12;4.38;;;1.50;;
10056;SDS011;5068;51.286;7.518;2024-02-14T01:54:45;3.42;;;1.27;;
10056;SDS011;5068;51.286;7.518;2024-02-14T01:56:18;1.42;;;0.90;;
10056;SDS011;5068;51.286;7.518;2024-02-14T01:57:50;2.03;;;1.20;;
10056;SDS011;5068;51.286;7.518;2024-02-14T01:59:24;2.35;;;1.13;;
10056;SDS011;5068;51.286;7.518;2024-02-14T02:00:58;2.92;;;1.30;;
10056;SDS011;5068;51.286;7.518;2024-02-14T02:02:32;2.42;;;1.27;;
10056;SDS011;5068;51.286;7.518;2024-02-14T02:04:06;3.38;;;1.00;;
10056;SDS011;5068;51.286;7.518;2024-02-14T02:05:40;3.05;;;1.20;;
10056;SDS011;5068;51.286;7.518;2024-02-14T02:07:13;2.35;;;1.05;;
10056;SDS011;5068;51.286;7.518;2024-02-14T02:08:46;2.00;;;1.38;;
10056;SDS011;5068;51.286;7.518;2024-02-14T02:10:19;2.30;;;1.35;;
10056;SDS011;5068;51.286;7.518;2024-02-14T02:12:13;2.78;;;1.10;;
10056;SDS011;5068;51.286;7.518;2024-02-14T02:14:07;1.90;;;1.08;;
10056;SDS011;5068;51.286;7.518;2024-02-14T02:16:00;3.25;;;1.30;;
10056;SDS011;5068;51.286;7.518;2024-02-14T02:17:56;2.17;;;1.10;;
10056;SDS011;5068;51.286;7.518;2024-02-14T02:19:54;1.20;;;0.80;;
10056;SDS011;5068;51.286;7.518;2024-02-14T02:21:38;1.42;;;0.90;;
10056;SDS011;5068;51.286;7.518;2024-02-14T02:23:15;3.72;;;0.90;;
10056;SDS011;5068;51.286;7.518;2024-02-14T02:24:50;3.50;;;1.00;;
10056;SDS011;5068;51.286;7.518;2024-02-14T02:26:22;1.90;;;1.02;;
10056;SDS011;5068;51.286;7.518;2024-02-14T02:28:11;2.28;;;0.88;;
10056;SDS011;5068;51.286;7.518;2024-02-14T02:29:47;2.95;;;1.10;;
10056;SDS011;5068;51.286;7.518;2024-02-14T02:31:20;1.92;;;1.00;;
10056;SDS011;5068;51.286;7.518;2024-02-14T02:32:53;2.67;;;1.10;;
10056;SDS011;5068;51.286;7.518;2024-02-14T02:34:27;2.03;;;1.25;;
10056;SDS011;5068;51.286;7.518;2024-02-14T02:36:00;3.40;;;1.20;;
10056;SDS011;5068;51.286;7.518;2024-02-14T02:37:53;1.58;;;1.05;;
10056;SDS011;5068;51.286;7.518;2024-02-14T02:41:38;1.35;;;0.80;;
10056;SDS011;5068;51.286;7.518;2024-02-14T02:43:30;1.48;;;0.68;;
10056;SDS011;5068;51.286;7.518;2024-02-14T02:45:23;1.73;;;0.75;;
10056;SDS011;5068;51.286;7.518;2024-02-14T02:47:17;2.42;;;0.80;;
10056;SDS011;5068;51.286;7.518;2024-02-14T02:49:09;1.42;;;0.80;;
10056;SDS011;5068;51.286;7.518;2024-02-14T02:50:49;1.20;;;0.70;;
10056;SDS011;5068;51.286;7.518;2024-02-14T02:52:42;3.67;;;1.13;;
10056;SDS011;5068;51.286;7.518;2024-02-14T02:54:21;1.50;;;0.80;;
10056;SDS011;5068;51.286;7.518;2024-02-14T02:56:16;2.25;;;0.85;;
10056;SDS011;5068;51.286;7.518;2024-02-14T02:57:50;2.35;;;0.68;;
10056;SDS011;5068;51.286;7.518;2024-02-14T02:59:24;2.50;;;1.00;;
10056;SDS011;5068;51.286;7.518;2024-02-14T03:00:57;1.95;;;0.82;;
10056;SDS011;5068;51.286;7.518;2024-02-14T03:02:49;2.88;;;0.70;;
10056;SDS011;5068;51.286;7.518;2024-02-14T03:04:42;1.45;;;0.63;;
10056;SDS011;5068;51.286;7.518;2024-02-14T03:06:43;1.45;;;0.68;;
10056;SDS011;5068;51.286;7.518;2024-02-14T03:08:27;1.17;;;0.40;;
10056;SDS011;5068;51.286;7.518;2024-02-14T03:10:21;1.20;;;0.63;;
10056;SDS011;5068;51.286;7.518;2024-02-14T03:12:17;2.50;;;0.90;;
10056;SDS011;5068;51.286;7.518;2024-02-14T03:14:13;1.45;;;0.73;;
10056;SDS011;5068;51.286;7.518;2024-02-14T03:16:06;1.48;;;0.63;;
10056;SDS011;5068;51.286;7.518;2024-02-14T03:17:39;1.70;;;0.85;;
10056;SDS011;5068;51.286;7.518;2024-02-14T03:19:12;1.45;;;0.85;;
10056;SDS011;5068;51.286;7.518;2024-02-14T03:20:45;2.72;;;1.00;;
10056;SDS011;5068;51.286;7.518;2024-02-14T03:22:17;1.40;;;0.63;;
10056;SDS011;5068;51.286;7.518;2024-02-14T03:23:51;2.00;;;0.90;;
10056;SDS011;5068;51.286;7.518;2024-02-14T03:25:25;1.75;;;0.50;;
10056;SDS011;5068;51.286;7.518;2024-02-14T03:27:04;1.38;;;0.63;;
10056;SDS011;5068;51.286;7.518;2024-02-14T03:28:38;1.88;;;0.60;;
10056;SDS011;5068;51.286;7.518;2024-02-14T03:30:11;0.73;;;0.50;;
10056;SDS011;5068;51.286;7.518;2024-02-14T03:31:44;1.10;;;0.60;;
10056;SDS011;5068;51.286;7.518;2024-02-14T03:33:17;1.55;;;0.40;;
10056;SDS011;5068;51.286;7.518;2024-02-14T03:34:50;2.05;;;0.50;;
10056;SDS011;5068;51.286;7.518;2024-02-14T03:36:23;1.67;;;0.65;;
10056;SDS011;5068;51.286;7.518;2024-02-14T03:37:59;1.25;;;0.52;;
10056;SDS011;5068;51.286;7.518;2024-02-14T03:41:06;1.35;;;0.60;;
10056;SDS011;5068;51.286;7.518;2024-02-14T03:42:39;0.80;;;0.47;;
10056;SDS011;5068;51.286;7.518;2024-02-14T03:44:14;1.63;;;0.70;;
10056;SDS011;5068;51.286;7.518;2024-02-14T03:45:46;1.50;;;0.50;;
10056;SDS011;5068;51.286;7.518;2024-02-14T03:47:19;1.55;;;0.50;;
10056;SDS011;5068;51.286;7.518;2024-02-14T03:48:52;0.95;;;0.50;;
10056;SDS011;5068;51.286;7.518;2024-02-14T03:50:25;2.58;;;0.52;;
10056;SDS011;5068;51.286;7.518;2024-02-14T03:51:58;0.90;;;0.43;;
10056;SDS011;5068;51.286;7.518;2024-02-14T03:53:32;3.45;;;0.68;;
10056;SDS011;5068;51.286;7.518;2024-02-14T03:55:06;1.30;;;0.52;;
10056;SDS011;5068;51.286;7.518;2024-02-14T03:56:40;0.95;;;0.50;;
10056;SDS011;5068;51.286;7.518;2024-02-14T03:58:13;0.77;;;0.35;;
10056;SDS011;5068;51.286;7.518;2024-02-14T03:59:48;1.98;;;0.70;;
10056;SDS011;5068;51.286;7.518;2024-02-14T04:01:22;1.38;;;0.50;;
10056;SDS011;5068;51.286;7.518;2024-02-14T04:02:54;1.48;;;0.70;;
10056;SDS011;5068;51.286;7.518;2024-02-14T04:04:30;0.77;;;0.68;;
10056;SDS011;5068;51.286;7.518;2024-02-14T04:06:03;1.00;;;0.60;;
10056;SDS011;5068;51.286;7.518;2024-02-14T04:07:37;2.05;;;0.70;;
10056;SDS011;5068;51.286;7.518;2024-02-14T04:09:09;1.35;;;0.57;;
10056;SDS011;5068;51.286;7.518;2024-02-14T04:10:43;2.10;;;0.52;;
10056;SDS011;5068;51.286;7.518;2024-02-14T04:12:15;1.65;;;0.50;;
10056;SDS011;5068;51.286;7.518;2024-02-14T04:13:48;2.50;;;0.50;;
10056;SDS011;5068;51.286;7.518;2024-02-14T04:15:22;1.20;;;0.50;;
10056;SDS011;5068;51.286;7.518;2024-02-14T04:16:59;1.00;;;0.50;;
10056;SDS011;5068;51.286;7.518;2024-02-14T04:18:31;0.70;;;0.40;;
10056;SDS011;5068;51.286;7.518;2024-02-14T04:20:05;1.73;;;0.40;;
10056;SDS011;5068;51.286;7.518;2024-02-14T04:21:39;0.90;;;0.50;;
10056;SDS011;5068;51.286;7.518;2024-02-14T04:23:12;0.93;;;0.40;;
10056;SDS011;5068;51.286;7.518;2024-02-14T04:24:45;1.42;;;0.57;;
10056;SDS011;5068;51.286;7.518;2024-02-14T04:26:19;1.25;;;0.50;;
10056;SDS011;5068;51.286;7.518;2024-02-14T04:27:52;1.15;;;0.35;;
10056;SDS011;5068;51.286;7.518;2024-02-14T04:29:25;0.80;;;0.60;;
10056;SDS011;5068;51.286;7.518;2024-02-14T04:31:01;1.00;;;0.50;;
10056;SDS011;5068;51.286;7.518;2024-02-14T04:32:39;1.40;;;0.70;;
10056;SDS011;5068;51.286;7.518;2024-02-14T04:34:11;1.33;;;0.50;;
10056;SDS011;5068;51.286;7.518;2024-02-14T04:35:45;1.73;;;0.68;;
10056;SDS011;5068;51.286;7.518;2024-02-14T04:37:17;2.05;;;0.45;;
10056;SDS011;5068;51.286;7.518;2024-02-14T04:38:51;0.85;;;0.50;;
10056;SDS011;5068;51.286;7.518;2024-02-14T04:40:24;1.00;;;0.40;;
10056;SDS011;5068;51.286;7.518;2024-02-14T04:41:57;1.10;;;0.68;;
10056;SDS011;5068;51.286;7.518;2024-02-14T04:43:33;1.17;;;0.60;;
10056;SDS011;5068;51.286;7.518;2024-02-14T04:45:06;0.80;;;0.50;;
10056;SDS011;5068;51.286;7.518;2024-02-14T04:46:57;1.15;;;0.55;;
10056;SDS011;5068;51.286;7.518;2024-02-14T04:48:31;1.15;;;0.40;;
10056;SDS011;5068;51.286;7.518;2024-02-14T04:50:04;1.80;;;0.82;;
10056;SDS011;5068;51.286;7.518;2024-02-14T04:51:38;1.38;;;0.45;;
10056;SDS011;5068;51.286;7.518;2024-02-14T04:53:10;1.10;;;0.60;;
10056;SDS011;5068;51.286;7.518;2024-02-14T04:54:43;0.90;;;0.40;;
10056;SDS011;5068;51.286;7.518;2024-02-14T04:56:15;0.57;;;0.32;;
10056;SDS011;5068;51.286;7.518;2024-02-14T04:57:49;1.17;;;0.40;;
10056;SDS011;5068;51.286;7.518;2024-02-14T04:59:21;1.33;;;0.68;;
10056;SDS011;5068;51.286;7.518;2024-02-14T05:00:54;0.90;;;0.50;;
10056;SDS011;5068;51.286;7.518;2024-02-14T05:02:28;0.88;;;0.60;;
10056;SDS011;5068;51.286;7.518;2024-02-14T05:04:01;1.00;;;0.50;;
10056;SDS011;5068;51.286;7.518;2024-02-14T05:05:34;1.00;;;0.57;;
10056;SDS011;5068;51.286;7.518;2024-02-14T05:07:08;1.42;;;0.50;;
10056;SDS011;5068;51.286;7.518;2024-02-14T05:08:40;1.73;;;0.57;;
10056;SDS011;5068;51.286;7.518;2024-02-14T05:10:13;0.80;;;0.50;;
10056;SDS011;5068;51.286;7.518;2024-02-14T05:11:46;1.10;;;0.80;;
10056;SDS011;5068;51.286;7.518;2024-02-14T05:13:20;0.93;;;0.47;;
10056;SDS011;5068;51.286;7.518;2024-02-14T05:14:52;1.55;;;0.60;;
10056;SDS011;5068;51.286;7.518;2024-02-14T05:16:26;1.00;;;0.60;;
10056;SDS011;5068;51.286;7.518;2024-02-14T05:18:00;2.47;;;0.60;;
10056;SDS011;5068;51.286;7.518;2024-02-14T05:19:33;1.58;;;0.47;;
10056;SDS011;5068;51.286;7.518;2024-02-14T05:21:06;1.35;;;0.50;;
10056;SDS011;5068;51.286;7.518;2024-02-14T05:22:40;1.45;;;0.50;;
10056;SDS011;5068;51.286;7.518;2024-02-14T05:24:12;1.48;;;0.70;;
10056;SDS011;5068;51.286;7.518;2024-02-14T05:25:46;0.95;;;0.63;;
10056;SDS011;5068;51.286;7.518;2024-02-14T05:27:21;1.00;;;0.65;;
10056;SDS011;5068;51.286;7.518;2024-02-14T05:28:55;1.08;;;0.73;;
10056;SDS011;5068;51.286;7.518;2024-02-14T05:30:27;1.00;;;0.50;;
10056;SDS011;5068;51.286;7.518;2024-02-14T05:32:11;1.13;;;0.68;;
10056;SDS011;5068;51.286;7.518;2024-02-14T05:33:44;0.88;;;0.50;;
10056;SDS011;5068;51.286;7.518;2024-02-14T05:35:18;2.28;;;0.60;;
10056;SDS011;5068;51.286;7.518;2024-02-14T05:36:51;1.08;;;0.60;;
10056;SDS011;5068;51.286;7.518;2024-02-14T05:38:24;1.15;;;0.70;;
10056;SDS011;5068;51.286;7.518;2024-02-14T05:39:58;1.50;;;0.60;;
10056;SDS011;5068;51.286;7.518;2024-02-14T05:41:30;1.52;;;0.70;;
10056;SDS011;5068;51.286;7.518;2024-02-14T05:43:04;1.15;;;0.70;;
10056;SDS011;5068;51.286;7.518;2024-02-14T05:44:38;1.90;;;0.60;;
10056;SDS011;5068;51.286;7.518;2024-02-14T05:46:14;1.25;;;0.50;;
10056;SDS011;5068;51.286;7.518;2024-02-14T05:47:47;1.90;;;0.70;;
10056;SDS011;5068;51.286;7.518;2024-02-14T05:49:21;1.23;;;0.60;;
10056;SDS011;5068;51.286;7.518;2024-02-14T05:50:55;0.90;;;0.60;;
10056;SDS011;5068;51.286;7.518;2024-02-14T05:52:27;2.33;;;0.85;;
10056;SDS011;5068;51.286;7.518;2024-02-14T05:54:00;0.95;;;0.60;;
10056;SDS011;5068;51.286;7.518;2024-02-14T05:55:33;1.05;;;0.70;;
10056;SDS011;5068;51.286;7.518;2024-02-14T05:57:06;1.17;;;0.57;;
10056;SDS011;5068;51.286;7.518;2024-02-14T05:58:38;1.52;;;0.73;;
10056;SDS011;5068;51.286;7.518;2024-02-14T06:00:12;0.77;;;0.60;;
10056;SDS011;5068;51.286;7.518;2024-02-14T06:01:45;1.10;;;0.70;;
10056;SDS011;5068;51.286;7.518;2024-02-14T06:03:18;1.35;;;0.70;;
10056;SDS011;5068;51.286;7.518;2024-02-14T06:04:52;1.25;;;0.65;;
10056;SDS011;5068;51.286;7.518;2024-02-14T06:06:26;1.52;;;0.63;;
10056;SDS011;5068;51.286;7.518;2024-02-14T06:07:58;1.27;;;0.65;;
10056;SDS011;5068;51.286;7.518;2024-02-14T06:09:34;1.25;;;0.70;;
10056;SDS011;5068;51.286;7.518;2024-02-14T06:11:09;1.15;;;0.60;;
10056;SDS011;5068;51.286;7.518;2024-02-14T06:12:43;0.90;;;0.60;;
10056;SDS011;5068;51.286;7.518;2024-02-14T06:14:19;1.70;;;0.52;;
10056;SDS011;5068;51.286;7.518;2024-02-14T06:15:51;1.08;;;0.50;;
10056;SDS011;5068;51.286;7.518;2024-02-14T06:17:24;1.70;;;0.60;;
10056;SDS011;5068;51.286;7.518;2024-02-14T06:18:58;1.30;;;0.60;;
10056;SDS011;5068;51.286;7.518;2024-02-14T06:20:32;2.05;;;0.55;;
10056;SDS011;5068;51.286;7.518;2024-02-14T06:22:05;0.85;;;0.40;;
10056;SDS011;5068;51.286;7.518;2024-02-14T06:23:37;1.02;;;0.43;;
10056;SDS011;5068;51.286;7.518;2024-02-14T06:25:11;1.25;;;0.60;;
10056;SDS011;5068;51.286;7.518;2024-02-14T06:26:55;1.52;;;0.47;;
10056;SDS011;5068;51.286;7.518;2024-02-14T06:28:28;0.80;;;0.40;;
10056;SDS011;5068;51.286;7.518;2024-02-14T06:30:01;1.00;;;0.45;;
10056;SDS011;5068;51.286;7.518;2024-02-14T06:31:35;0.65;;;0.40;;
10056;SDS011;5068;51.286;7.518;2024-02-14T06:33:08;1.90;;;0.50;;
10056;SDS011;5068;51.286;7.518;2024-02-14T06:34:40;0.95;;;0.52;;
10056;SDS011;5068;51.286;7.518;2024-02-14T06:36:15;1.20;;;0.57;;
10056;SDS011;5068;51.286;7.518;2024-02-14T06:37:48;0.88;;;0.38;;
10056;SDS011;5068;51.286;7.518;2024-02-14T06:39:33;0.70;;;0.50;;
10056;SDS011;5068;51.286;7.518;2024-02-14T06:41:05;1.25;;;0.60;;
10056;SDS011;5068;51.286;7.518;2024-02-14T06:42:39;0.80;;;0.40;;
10056;SDS011;5068;51.286;7.518;2024-02-14T06:44:11;0.80;;;0.43;;
10056;SDS011;5068;51.286;7.518;2024-02-14T06:45:45;0.88;;;0.50;;
10056;SDS011;5068;51.286;7.518;2024-02-14T06:47:26;0.70;;;0.50;;
10056;SDS011;5068;51.286;7.518;2024-02-14T06:49:01;1.30;;;0.38;;
10056;SDS011;5068;51.286;7.518;2024-02-14T06:50:34;2.33;;;0.98;;
10056;SDS011;5068;51.286;7.518;2024-02-14T06:52:08;0.80;;;0.50;;
10056;SDS011;5068;51.286;7.518;2024-02-14T06:53:41;1.00;;;0.60;;
10056;SDS011;5068;51.286;7.518;2024-02-14T06:55:14;1.20;;;0.57;;
10056;SDS011;5068;51.286;7.518;2024-02-14T06:56:54;0.68;;;0.48;;
10056;SDS011;5068;51.286;7.518;2024-02-14T06:58:42;1.03;;;0.42;;
10056;SDS011;5068;51.286;7.518;2024-02-14T07:00:16;2.05;;;0.60;;
10056;SDS011;5068;51.286;7.518;2024-02-14T07:01:50;1.80;;;0.73;;
10056;SDS011;5068;51.286;7.518;2024-02-14T07:03:33;1.67;;;0.60;;
10056;SDS011;5068;51.286;7.518;2024-02-14T07:05:05;1.85;;;0.70;;
10056;SDS011;5068;51.286;7.518;2024-02-14T07:08:13;1.45;;;0.65;;
10056;SDS011;5068;51.286;7.518;2024-02-14T07:09:46;1.63;;;0.80;;
10056;SDS011;5068;51.286;7.518;2024-02-14T07:11:19;2.15;;;0.77;;
10056;SDS011;5068;51.286;7.518;2024-02-14T07:12:52;1.15;;;0.60;;
10056;SDS011;5068;51.286;7.518;2024-02-14T07:14:25;1.40;;;0.80;;
10056;SDS011;5068;51.286;7.518;2024-02-14T07:15:57;1.50;;;0.80;;
10056;SDS011;5068;51.286;7.518;2024-02-14T07:17:30;1.20;;;0.65;;
10056;SDS011;5068;51.286;7.518;2024-02-14T07:19:04;2.05;;;0.88;;
10056;SDS011;5068;51.286;7.518;2024-02-14T07:20:38;1.08;;;0.85;;
10056;SDS011;5068;51.286;7.518;2024-02-14T07:22:10;2.08;;;0.80;;
10056;SDS011;5068;51.286;7.518;2024-02-14T07:23:44;1.85;;;0.80;;
10056;SDS011;5068;51.286;7.518;2024-02-14T07:25:16;0.95;;;0.70;;
10056;SDS011;5068;51.286;7.518;2024-02-14T07:26:50;1.48;;;0.75;;
10056;SDS011;5068;51.286;7.518;2024-02-14T07:28:22;1.58;;;0.70;;
10056;SDS011;5068;51.286;7.518;2024-02-14T07:29:55;1.42;;;0.77;;
10056;SDS011;5068;51.286;7.518;2024-02-14T07:31:28;1.38;;;0.73;;
10056;SDS011;5068;51.286;7.518;2024-02-14T07:33:04;2.05;;;0.90;;
10056;SDS011;5068;51.286;7.518;2024-02-14T07:34:37;1.10;;;0.85;;
10056;SDS011;5068;51.286;7.518;2024-02-14T07:36:11;1.10;;;0.68;;
10056;SDS011;5068;51.286;7.518;2024-02-14T07:37:44;1.42;;;0.88;;
10056;SDS011;5068;51.286;7.518;2024-02-14T07:39:19;1.63;;;0.73;;
10056;SDS011;5068;51.286;7.518;2024-02-14T07:40:51;1.00;;;0.75;;
10056;SDS011;5068;51.286;7.518;2024-02-14T07:42:28;1.33;;;0.80;;
10056;SDS011;5068;51.286;7.518;2024-02-14T07:44:00;1.58;;;0.77;;
10056;SDS011;5068;51.286;7.518;2024-02-14T07:45:33;1.95;;;0.65;;
10056;SDS011;5068;51.286;7.518;2024-02-14T07:47:05;1.60;;;1.00;;
10056;SDS011;5068;51.286;7.518;2024-02-14T07:48:39;1.50;;;0.68;;
10056;SDS011;5068;51.286;7.518;2024-02-14T07:50:11;1.15;;;0.80;;
10056;SDS011;5068;51.286;7.518;2024-02-14T07:51:45;0.88;;;0.60;;
10056;SDS011;5068;51.286;7.518;2024-02-14T07:53:18;1.05;;;0.60;;
10056;SDS011;5068;51.286;7.518;2024-02-14T07:54:53;1.15;;;0.75;;
10056;SDS011;5068;51.286;7.518;2024-02-14T07:56:26;1.00;;;0.70;;
10056;SDS011;5068;51.286;7.518;2024-02-14T07:57:59;1.52;;;0.70;;
10056;SDS011;5068;51.286;7.518;2024-02-14T07:59:32;0.95;;;0.60;;
10056;SDS011;5068;51.286;7.518;2024-02-14T08:01:04;0.70;;;0.50;;
10056;SDS011;5068;51.286;7.518;2024-02-14T08:02:38;0.90;;;0.65;;
10056;SDS011;5068;51.286;7.518;2024-02-14T08:04:10;0.98;;;0.60;;
10056;SDS011;5068;51.286;7.518;2024-02-14T08:05:43;1.15;;;0.75;;
10056;SDS011;5068;51.286;7.518;2024-02-14T08:07:16;1.20;;;0.80;;
10056;SDS011;5068;51.286;7.518;2024-02-14T08:08:49;1.70;;;0.73;;
10056;SDS011;5068;51.286;7.518;2024-02-14T08:10:26;1.25;;;0.60;;
10056;SDS011;5068;51.286;7.518;2024-02-14T08:12:02;1.92;;;0.80;;
10056;SDS011;5068;51.286;7.518;2024-02-14T08:13:35;1.10;;;0.80;;
10056;SDS011;5068;51.286;7.518;2024-02-14T08:15:10;0.90;;;0.60;;
10056;SDS011;5068;51.286;7.518;2024-02-14T08:16:43;1.33;;;0.63;;
10056;SDS011;5068;51.286;7.518;2024-02-14T08:18:16;0.90;;;0.60;;
10056;SDS011;5068;51.286;7.518;2024-02-14T08:19:49;1.48;;;0.70;;
10056;SDS011;5068;51.286;7.518;2024-02-14T08:21:22;1.10;;;0.60;;
10056;SDS011;5068;51.286;7.518;2024-02-14T08:23:00;1.02;;;0.80;;
10056;SDS011;5068;51.286;7.518;2024-02-14T08:24:32;1.25;;;0.80;;
10056;SDS011;5068;51.286;7.518;2024-02-14T08:26:07;0.80;;;0.60;;
10056;SDS011;5068;51.286;7.518;2024-02-14T08:27:41;0.93;;;0.70;;
10056;SDS011;5068;51.286;7.518;2024-02-14T08:46:00;1.00;;;0.50;;
10056;SDS011;5068;51.286;7.518;2024-02-14T08:47:38;1.40;;;0.70;;
10056;SDS011;5068;51.286;7.518;2024-02-14T08:49:11;1.00;;;0.50;;
10056;SDS011;5068;51.286;7.518;2024-02-14T08:50:44;0.98;;;0.43;;
10056;SDS011;5068;51.286;7.518;2024-02-14T08:52:17;1.15;;;0.70;;
10056;SDS011;5068;51.286;7.518;2024-02-14T08:53:50;1.73;;;0.50;;
10056;SDS011;5068;51.286;7.518;2024-02-14T08:55:26;1.13;;;0.50;;
10056;SDS011;5068;51.286;7.518;2024-02-14T08:57:00;0.40;;;0.22;;
10056;SDS011;5068;51.286;7.518;2024-02-14T08:58:34;1.05;;;0.43;;
10056;SDS011;5068;51.286;7.518;2024-02-14T09:00:07;0.50;;;0.40;;
10056;SDS011;5068;51.286;7.518;2024-02-14T09:01:43;2.50;;;0.60;;
10056;SDS011;5068;51.286;7.518;2024-02-14T09:04:50;1.23;;;0.43;;
10056;SDS011;5068;51.286;7.518;2024-02-14T09:06:23;1.02;;;0.45;;
10056;SDS011;5068;51.286;7.518;2024-02-14T09:07:56;1.20;;;0.50;;
10056;SDS011;5068;51.286;7.518;2024-02-14T09:09:29;1.52;;;0.57;;
10056;SDS011;5068;51.286;7.518;2024-02-14T09:11:02;0.98;;;0.63;;
10056;SDS011;5068;51.286;7.518;2024-02-14T09:12:35;1.63;;;0.70;;
10056;SDS011;5068;51.286;7.518;2024-02-14T09:14:08;0.95;;;0.55;;
10056;SDS011;5068;51.286;7.518;2024-02-14T09:17:17;1.30;;;0.60;;
10056;SDS011;5068;51.286;7.518;2024-02-14T09:18:49;1.00;;;0.68;;
10056;SDS011;5068;51.286;7.518;2024-02-14T09:20:22;1.73;;;0.70;;
10056;SDS011;5068;51.286;7.518;2024-02-14T09:21:55;0.73;;;0.52;;
10056;SDS011;5068;51.286;7.518;2024-02-14T09:23:28;0.88;;;0.68;;
10056;SDS011;5068;51.286;7.518;2024-02-14T09:25:01;0.90;;;0.50;;
10056;SDS011;5068;51.286;7.518;2024-02-14T09:26:35;1.20;;;0.63;;
10056;SDS011;5068;51.286;7.518;2024-02-14T09:28:09;0.98;;;0.60;;
10056;SDS011;5068;51.286;7.518;2024-02-14T09:29:44;0.80;;;0.50;;
10056;SDS011;5068;51.286;7.518;2024-02-14T09:31:19;1.00;;;0.43;;
10056;SDS011;5068;51.286;7.518;2024-02-14T09:32:54;2.50;;;0.50;;
10056;SDS011;5068;51.286;7.518;2024-02-14T09:34:27;1.00;;;0.50;;
10056;SDS011;5068;51.286;7.518;2024-02-14T09:36:00;1.10;;;0.63;;
10056;SDS011;5068;51.286;7.518;2024-02-14T09:37:33;0.73;;;0.50;;
10056;SDS011;5068;51.286;7.518;2024-02-14T09:39:06;1.13;;;0.60;;
10056;SDS011;5068;51.286;7.518;2024-02-14T09:40:39;1.30;;;0.47;;
10056;SDS011;5068;51.286;7.518;2024-02-14T09:42:13;1.33;;;0.50;;
10056;SDS011;5068;51.286;7.518;2024-02-14T09:43:51;0.82;;;0.47;;
10056;SDS011;5068;51.286;7.518;2024-02-14T09:45:25;1.23;;;0.43;;
10056;SDS011;5068;51.286;7.518;2024-02-14T09:46:58;0.82;;;0.40;;
10056;SDS011;5068;51.286;7.518;2024-02-14T09:48:34;1.42;;;0.50;;
10056;SDS011;5068;51.286;7.518;2024-02-14T09:50:09;0.77;;;0.38;;
10056;SDS011;5068;51.286;7.518;2024-02-14T09:51:45;0.80;;;0.30;;
10056;SDS011;5068;51.286;7.518;2024-02-14T09:53:21;1.10;;;0.43;;
10056;SDS011;5068;51.286;7.518;2024-02-14T09:54:55;0.65;;;0.40;;
10056;SDS011;5068;51.286;7.518;2024-02-14T09:56:29;0.90;;;0.40;;
10056;SDS011;5068;51.286;7.518;2024-02-14T09:58:03;0.65;;;0.43;;
10056;SDS011;5068;51.286;7.518;2024-02-14T09:59:38;0.68;;;0.35;;
10056;SDS011;5068;51.286;7.518;2024-02-14T10:02:46;0.60;;;0.30;;
10056;SDS011;5068;51.286;7.518;2024-02-14T10:04:20;0.70;;;0.50;;
10056;SDS011;5068;51.286;7.518;2024-02-14T10:05:56;0.50;;;0.30;;
10056;SDS011;5068;51.286;7.518;2024-02-14T10:07:30;0.68;;;0.40;;